AFR54M LFPG-LFPO
Flight info
| Callsign | AFR54M |
|---|---|
| Flight time | 0h 22m |
| Altitude | 11000 |
| Route | PG081 DCT PG084 DCT PG109/N0335F100 DCT PG800 DCT PG801 DCT CF06 |
| Aircraft | A20N/M-SDE2E3FGHIRWXY/LB1 |
Departure
| Time | 2026-05-05 22:37 |
|---|---|
| Airport | Charles de Gaulle International Airport (LFPG) |
Arrival
| Time | 2026-05-05 22:59 |
|---|---|
| Airport | Paris-Orly Airport (LFPO) |
| Time | Latitude | Longitude | Altitude | Speed | Heading |
|---|---|---|---|---|---|
| 2026-05-05 21:42 | 49.01320 | 2.51040 | 350 ft | 0 kts | 85° |
| 2026-05-05 22:22 | 49.01319 | 2.51028 | 350 ft | 3 kts | 85° |
| 2026-05-05 22:22 | 49.01312 | 2.50974 | 349 ft | 6 kts | 57° |
| 2026-05-05 22:22 | 49.01284 | 2.50949 | 349 ft | 0 kts | 359° |
| 2026-05-05 22:27 | 49.01321 | 2.50943 | 349 ft | 7 kts | 349° |
| 2026-05-05 22:28 | 49.01376 | 2.50931 | 350 ft | 8 kts | 355° |
| 2026-05-05 22:28 | 49.01436 | 2.50931 | 350 ft | 8 kts | 35° |
| 2026-05-05 22:28 | 49.01459 | 2.51040 | 352 ft | 8 kts | 84° |
| 2026-05-05 22:28 | 49.01463 | 2.51095 | 353 ft | 7 kts | 86° |
| 2026-05-05 22:29 | 49.01466 | 2.51165 | 355 ft | 6 kts | 85° |
| 2026-05-05 22:29 | 49.01472 | 2.51227 | 356 ft | 5 kts | 71° |
| 2026-05-05 22:29 | 49.01494 | 2.51272 | 357 ft | 5 kts | 41° |
| 2026-05-05 22:29 | 49.01526 | 2.51295 | 358 ft | 5 kts | 10° |
| 2026-05-05 22:30 | 49.01569 | 2.51295 | 358 ft | 6 kts | 357° |
| 2026-05-05 22:30 | 49.01625 | 2.51286 | 359 ft | 10 kts | 354° |
| 2026-05-05 22:30 | 49.01717 | 2.51274 | 360 ft | 16 kts | 356° |
| 2026-05-05 22:30 | 49.01832 | 2.51260 | 362 ft | 16 kts | 355° |
| 2026-05-05 22:31 | 49.01900 | 2.51252 | 363 ft | 0 kts | 356° |
| 2026-05-05 22:35 | 49.01912 | 2.51250 | 363 ft | 5 kts | 357° |
| 2026-05-05 22:35 | 49.01958 | 2.51253 | 364 ft | 7 kts | 10° |
| 2026-05-05 22:35 | 49.02004 | 2.51287 | 365 ft | 8 kts | 38° |
| 2026-05-05 22:36 | 49.02050 | 2.51344 | 366 ft | 8 kts | 47° |
| 2026-05-05 22:36 | 49.02071 | 2.51466 | 368 ft | 31 kts | 85° |
| 2026-05-05 22:36 | 49.02113 | 2.52225 | 375 ft | 110 kts | 86° |
| 2026-05-05 22:36 | 49.02179 | 2.53710 | 473 ft | 161 kts | 84° |
| 2026-05-05 22:37 | 49.02230 | 2.55443 | 1145 ft | 168 kts | 85° |
| 2026-05-05 22:37 | 49.02234 | 2.57189 | 1961 ft | 171 kts | 83° |
| 2026-05-05 22:37 | 49.02187 | 2.58962 | 2749 ft | 178 kts | 94° |
| 2026-05-05 22:37 | 49.01873 | 2.60902 | 3299 ft | 199 kts | 103° |
| 2026-05-05 22:38 | 49.01496 | 2.62998 | 3942 ft | 214 kts | 101° |
| 2026-05-05 22:38 | 49.01148 | 2.65215 | 4792 ft | 220 kts | 101° |
| 2026-05-05 22:38 | 49.00797 | 2.67490 | 5701 ft | 224 kts | 102° |
| 2026-05-05 22:38 | 49.00514 | 2.69808 | 6580 ft | 227 kts | 95° |
| 2026-05-05 22:39 | 49.00476 | 2.72191 | 7432 ft | 231 kts | 87° |
| 2026-05-05 22:39 | 49.00584 | 2.74640 | 8264 ft | 237 kts | 86° |
| 2026-05-05 22:39 | 49.00654 | 2.77159 | 9044 ft | 243 kts | 98° |
| 2026-05-05 22:39 | 49.00140 | 2.79557 | 9819 ft | 246 kts | 123° |
| 2026-05-05 22:40 | 48.98991 | 2.81482 | 10444 ft | 248 kts | 147° |
| 2026-05-05 22:40 | 48.97434 | 2.82518 | 10752 ft | 248 kts | 171° |
| 2026-05-05 22:40 | 48.95704 | 2.82673 | 10799 ft | 247 kts | 181° |
| 2026-05-05 22:40 | 48.94001 | 2.82640 | 10805 ft | 247 kts | 181° |
| 2026-05-05 22:41 | 48.92280 | 2.82608 | 10811 ft | 246 kts | 181° |
| 2026-05-05 22:41 | 48.90590 | 2.82596 | 10812 ft | 245 kts | 180° |
| 2026-05-05 22:41 | 48.88868 | 2.82601 | 10813 ft | 245 kts | 180° |
| 2026-05-05 22:41 | 48.87159 | 2.82614 | 10813 ft | 245 kts | 180° |
| 2026-05-05 22:42 | 48.85458 | 2.82632 | 10811 ft | 245 kts | 181° |
| 2026-05-05 22:42 | 48.83757 | 2.82651 | 10808 ft | 245 kts | 181° |
| 2026-05-05 22:42 | 48.82046 | 2.82670 | 10805 ft | 245 kts | 181° |
| 2026-05-05 22:42 | 48.80338 | 2.82690 | 10802 ft | 245 kts | 181° |
| 2026-05-05 22:43 | 48.78638 | 2.82710 | 10801 ft | 245 kts | 181° |
| 2026-05-05 22:43 | 48.76937 | 2.82731 | 10795 ft | 245 kts | 181° |
| 2026-05-05 22:43 | 48.75220 | 2.82752 | 10806 ft | 245 kts | 181° |
| 2026-05-05 22:43 | 48.73501 | 2.82500 | 10804 ft | 243 kts | 198° |
| 2026-05-05 22:44 | 48.71974 | 2.81419 | 10803 ft | 241 kts | 216° |
| 2026-05-05 22:44 | 48.70752 | 2.79676 | 10806 ft | 242 kts | 229° |
| 2026-05-05 22:44 | 48.69669 | 2.77724 | 10793 ft | 242 kts | 230° |
| 2026-05-05 22:44 | 48.69260 | 2.76971 | 10800 ft | 242 kts | 230° |
| 2026-05-05 22:45 | 48.68536 | 2.75642 | 10813 ft | 242 kts | 231° |
| 2026-05-05 22:45 | 48.67451 | 2.73651 | 10803 ft | 242 kts | 230° |
| 2026-05-05 22:45 | 48.66378 | 2.71686 | 10805 ft | 242 kts | 230° |
| 2026-05-05 22:45 | 48.65292 | 2.69719 | 10812 ft | 242 kts | 230° |
| 2026-05-05 22:46 | 48.64216 | 2.67775 | 10819 ft | 241 kts | 230° |
| 2026-05-05 22:46 | 48.63133 | 2.65823 | 10820 ft | 241 kts | 230° |
| 2026-05-05 22:46 | 48.62062 | 2.63895 | 10818 ft | 241 kts | 230° |
| 2026-05-05 22:46 | 48.60983 | 2.61953 | 10820 ft | 241 kts | 230° |
| 2026-05-05 22:47 | 48.59904 | 2.60011 | 10821 ft | 241 kts | 230° |
| 2026-05-05 22:47 | 48.58827 | 2.58075 | 10821 ft | 241 kts | 230° |
| 2026-05-05 22:47 | 48.57750 | 2.56138 | 10821 ft | 241 kts | 230° |
| 2026-05-05 22:47 | 48.56670 | 2.54196 | 10836 ft | 241 kts | 230° |
| 2026-05-05 22:48 | 48.55592 | 2.52261 | 10829 ft | 241 kts | 230° |
| 2026-05-05 22:48 | 48.54532 | 2.50359 | 10820 ft | 235 kts | 230° |
| 2026-05-05 22:48 | 48.53500 | 2.48511 | 10821 ft | 232 kts | 230° |
| 2026-05-05 22:48 | 48.52465 | 2.46657 | 10578 ft | 230 kts | 230° |
| 2026-05-05 22:49 | 48.51441 | 2.44828 | 10228 ft | 231 kts | 230° |
| 2026-05-05 22:49 | 48.50407 | 2.42981 | 9931 ft | 229 kts | 230° |
| 2026-05-05 22:49 | 48.49374 | 2.41140 | 9630 ft | 228 kts | 230° |
| 2026-05-05 22:49 | 48.48365 | 2.39342 | 9314 ft | 228 kts | 230° |
| 2026-05-05 22:50 | 48.47352 | 2.37474 | 8988 ft | 228 kts | 238° |
| 2026-05-05 22:50 | 48.46829 | 2.35253 | 8676 ft | 227 kts | 266° |
| 2026-05-05 22:50 | 48.46866 | 2.32926 | 8435 ft | 223 kts | 272° |
| 2026-05-05 22:50 | 48.46947 | 2.30733 | 8132 ft | 224 kts | 272° |
| 2026-05-05 22:51 | 48.47030 | 2.28334 | 7818 ft | 223 kts | 274° |
| 2026-05-05 22:51 | 48.47350 | 2.26055 | 7478 ft | 223 kts | 296° |
| 2026-05-05 22:51 | 48.48214 | 2.24145 | 7196 ft | 221 kts | 309° |
| 2026-05-05 22:51 | 48.49189 | 2.22386 | 6913 ft | 220 kts | 311° |
| 2026-05-05 22:52 | 48.50173 | 2.20614 | 6596 ft | 219 kts | 311° |
| 2026-05-05 22:52 | 48.51147 | 2.18862 | 6307 ft | 218 kts | 311° |
| 2026-05-05 22:52 | 48.52102 | 2.17126 | 6032 ft | 217 kts | 311° |
| 2026-05-05 22:52 | 48.53064 | 2.15371 | 5719 ft | 217 kts | 311° |
| 2026-05-05 22:53 | 48.54016 | 2.13631 | 5444 ft | 215 kts | 310° |
| 2026-05-05 22:53 | 48.54960 | 2.11894 | 5201 ft | 213 kts | 311° |
| 2026-05-05 22:53 | 48.55899 | 2.10160 | 4889 ft | 214 kts | 312° |
| 2026-05-05 22:53 | 48.56850 | 2.08412 | 4590 ft | 214 kts | 312° |
| 2026-05-05 22:54 | 48.57786 | 2.06695 | 4338 ft | 211 kts | 312° |
| 2026-05-05 22:54 | 48.58714 | 2.04990 | 4115 ft | 210 kts | 316° |
| 2026-05-05 22:54 | 48.59904 | 2.03797 | 3978 ft | 205 kts | 351° |
| 2026-05-05 22:54 | 48.61297 | 2.03875 | 3969 ft | 201 kts | 22° |
| 2026-05-05 22:55 | 48.62411 | 2.05113 | 3971 ft | 203 kts | 49° |
| 2026-05-05 22:55 | 48.63226 | 2.06929 | 3909 ft | 207 kts | 56° |
| 2026-05-05 22:55 | 48.63938 | 2.08808 | 3669 ft | 210 kts | 58° |
| 2026-05-05 22:55 | 48.64630 | 2.10747 | 3390 ft | 209 kts | 59° |
| 2026-05-05 22:56 | 48.65311 | 2.12694 | 3109 ft | 208 kts | 60° |
| 2026-05-05 22:56 | 48.65982 | 2.14614 | 2833 ft | 207 kts | 60° |
| 2026-05-05 22:56 | 48.66657 | 2.16541 | 2557 ft | 206 kts | 59° |
| 2026-05-05 22:56 | 48.67332 | 2.18425 | 2287 ft | 204 kts | 59° |
| 2026-05-05 22:57 | 48.68006 | 2.20236 | 1967 ft | 193 kts | 58° |
| 2026-05-05 22:57 | 48.68662 | 2.21936 | 1733 ft | 182 kts | 57° |
| 2026-05-05 22:57 | 48.69314 | 2.23559 | 1562 ft | 173 kts | 54° |
| 2026-05-05 22:57 | 48.69916 | 2.24998 | 1438 ft | 153 kts | 53° |
| 2026-05-05 22:58 | 48.70471 | 2.26292 | 1172 ft | 142 kts | 58° |
| 2026-05-05 22:58 | 48.70735 | 2.27667 | 933 ft | 134 kts | 79° |
| 2026-05-05 22:58 | 48.70961 | 2.28994 | 711 ft | 128 kts | 57° |
| 2026-05-05 22:58 | 48.71418 | 2.30141 | 554 ft | 129 kts | 57° |
| 2026-05-05 22:59 | 48.71853 | 2.31324 | 440 ft | 129 kts | 60° |
| 2026-05-05 22:59 | 48.72277 | 2.32496 | 279 ft | 125 kts | 59° |
| 2026-05-05 22:59 | 48.72623 | 2.33459 | 280 ft | 80 kts | 64° |
| 2026-05-05 22:59 | 48.72761 | 2.33951 | 282 ft | 37 kts | 77° |
| 2026-05-05 23:00 | 48.72832 | 2.34654 | 283 ft | 30 kts | 81° |
| 2026-05-05 23:00 | 48.72842 | 2.34781 | 283 ft | 0 kts | 82° |
| 2026-05-05 23:05 | 48.72858 | 2.34944 | 282 ft | 26 kts | 82° |
| 2026-05-05 23:06 | 48.72813 | 2.35193 | 282 ft | 25 kts | 135° |
| 2026-05-05 23:06 | 48.72682 | 2.35258 | 282 ft | 15 kts | 163° |
| 2026-05-05 23:06 | 48.72573 | 2.35306 | 282 ft | 16 kts | 164° |
| 2026-05-05 23:06 | 48.72530 | 2.35303 | 282 ft | 5 kts | 228° |
| 2026-05-05 23:07 | 48.72515 | 2.35264 | 282 ft | 0 kts | 259° |